Terminal Aerodrome Forecast
Issued by NWS Melbourne, FL

Home | Current Version | Previous Version | Text Only | Print | Product List | Glossary On
Versions: 1 2 3 4 5 6 7 8 9 10 11 12 13 14 15 16 17 18
000
FTUS42 KMLB 242010 AAA
TAFDAB
TAF AMD
KDAB 242010Z 2420/2518 24016G26KT P6SM VCTS SCT035CB SCT060 BKN080
      TEMPO 2420/2423 VRB25G34KT 2SM TSRA BKN020CB OVC030
     FM242300 23015G23KT P6SM VCSH SCT030 OVC060
      TEMPO 2423/2501 2SM SHRA BKN025 OVC050
     FM250100 21015KT P6SM SCT030 OVC050
     FM251300 26018G25KT P6SM SCT030 BKN050=

USA.gov is the U.S. government's official web portal to all federal, state and local government web resources and services.